sensor_id;sensor_type;location;lat;lon;timestamp;temperature;humidity
38131;DHT22;23947;51.894;4.622;2022-07-21T00:00:27;19.90;1.00
38131;DHT22;23947;51.894;4.622;2022-07-21T00:02:53;20.00;1.00
38131;DHT22;23947;51.894;4.622;2022-07-21T00:05:23;20.00;1.00
38131;DHT22;23947;51.894;4.622;2022-07-21T00:07:49;20.00;1.00
38131;DHT22;23947;51.894;4.622;2022-07-21T00:10:16;20.00;1.00
38131;DHT22;23947;51.894;4.622;2022-07-21T00:12:42;20.00;1.00
38131;DHT22;23947;51.894;4.622;2022-07-21T00:15:08;20.00;1.00
38131;DHT22;23947;51.894;4.622;2022-07-21T00:17:34;20.00;1.00
38131;DHT22;23947;51.894;4.622;2022-07-21T00:19:59;20.00;1.00
38131;DHT22;23947;51.894;4.622;2022-07-21T00:22:26;19.90;1.00
38131;DHT22;23947;51.894;4.622;2022-07-21T00:24:51;19.90;1.00
38131;DHT22;23947;51.894;4.622;2022-07-21T00:27:17;19.70;1.00
38131;DHT22;23947;51.894;4.622;2022-07-21T00:29:42;19.80;1.00
38131;DHT22;23947;51.894;4.622;2022-07-21T00:32:08;19.80;1.00
38131;DHT22;23947;51.894;4.622;2022-07-21T00:34:34;19.80;1.00
38131;DHT22;23947;51.894;4.622;2022-07-21T00:37:00;19.80;1.00
38131;DHT22;23947;51.894;4.622;2022-07-21T00:39:26;19.90;1.00
38131;DHT22;23947;51.894;4.622;2022-07-21T00:41:51;19.90;1.00
38131;DHT22;23947;51.894;4.622;2022-07-21T00:44:22;19.90;1.00
38131;DHT22;23947;51.894;4.622;2022-07-21T00:46:48;19.90;1.00
38131;DHT22;23947;51.894;4.622;2022-07-21T00:49:14;19.80;1.00
38131;DHT22;23947;51.894;4.622;2022-07-21T00:51:40;19.80;1.00
38131;DHT22;23947;51.894;4.622;2022-07-21T00:54:05;19.80;1.00
38131;DHT22;23947;51.894;4.622;2022-07-21T00:56:31;19.80;1.00
38131;DHT22;23947;51.894;4.622;2022-07-21T00:58:56;19.80;1.00
38131;DHT22;23947;51.894;4.622;2022-07-21T01:01:22;19.80;1.00
38131;DHT22;23947;51.894;4.622;2022-07-21T01:03:48;19.70;1.00
38131;DHT22;23947;51.894;4.622;2022-07-21T01:06:13;19.60;1.00
38131;DHT22;23947;51.894;4.622;2022-07-21T01:08:39;19.60;1.00
38131;DHT22;23947;51.894;4.622;2022-07-21T01:11:05;19.70;1.00
38131;DHT22;23947;51.894;4.622;2022-07-21T01:13:32;19.70;1.00
38131;DHT22;23947;51.894;4.622;2022-07-21T01:15:57;19.80;1.00
38131;DHT22;23947;51.894;4.622;2022-07-21T01:18:24;19.70;1.00
38131;DHT22;23947;51.894;4.622;2022-07-21T01:20:54;19.80;1.00
38131;DHT22;23947;51.894;4.622;2022-07-21T01:23:21;19.70;1.00
38131;DHT22;23947;51.894;4.622;2022-07-21T01:25:50;19.80;1.00
38131;DHT22;23947;51.894;4.622;2022-07-21T01:28:16;19.80;1.00
38131;DHT22;23947;51.894;4.622;2022-07-21T01:30:42;19.80;1.00
38131;DHT22;23947;51.894;4.622;2022-07-21T01:33:08;19.70;1.00
38131;DHT22;23947;51.894;4.622;2022-07-21T01:35:34;19.70;1.00
38131;DHT22;23947;51.894;4.622;2022-07-21T01:38:00;19.70;1.00
38131;DHT22;23947;51.894;4.622;2022-07-21T01:40:26;19.70;1.00
38131;DHT22;23947;51.894;4.622;2022-07-21T01:43:10;19.70;1.00
38131;DHT22;23947;51.894;4.622;2022-07-21T01:45:36;19.70;1.00
38131;DHT22;23947;51.894;4.622;2022-07-21T01:48:02;19.70;1.00
38131;DHT22;23947;51.894;4.622;2022-07-21T01:50:29;19.70;1.00
38131;DHT22;23947;51.894;4.622;2022-07-21T01:53:01;19.70;1.00
38131;DHT22;23947;51.894;4.622;2022-07-21T01:55:27;19.60;1.00
38131;DHT22;23947;51.894;4.622;2022-07-21T01:57:54;19.60;1.00
38131;DHT22;23947;51.894;4.622;2022-07-21T02:00:20;19.60;1.00
38131;DHT22;23947;51.894;4.622;2022-07-21T02:02:47;19.60;1.00
38131;DHT22;23947;51.894;4.622;2022-07-21T02:05:13;19.60;1.00
38131;DHT22;23947;51.894;4.622;2022-07-21T02:07:38;19.60;1.00
38131;DHT22;23947;51.894;4.622;2022-07-21T02:10:04;19.60;1.00
38131;DHT22;23947;51.894;4.622;2022-07-21T02:12:30;19.60;1.00
38131;DHT22;23947;51.894;4.622;2022-07-21T02:14:56;19.60;1.00
38131;DHT22;23947;51.894;4.622;2022-07-21T02:17:21;19.50;1.00
38131;DHT22;23947;51.894;4.622;2022-07-21T02:19:47;19.50;1.00
38131;DHT22;23947;51.894;4.622;2022-07-21T02:22:12;19.50;1.00
38131;DHT22;23947;51.894;4.622;2022-07-21T02:24:38;19.50;1.00
38131;DHT22;23947;51.894;4.622;2022-07-21T02:27:06;19.50;1.00
38131;DHT22;23947;51.894;4.622;2022-07-21T02:29:31;19.40;1.00
38131;DHT22;23947;51.894;4.622;2022-07-21T02:31:57;19.40;1.00
38131;DHT22;23947;51.894;4.622;2022-07-21T02:34:23;19.50;1.00
38131;DHT22;23947;51.894;4.622;2022-07-21T02:36:48;19.50;1.00
38131;DHT22;23947;51.894;4.622;2022-07-21T02:39:14;19.40;1.00
38131;DHT22;23947;51.894;4.622;2022-07-21T02:41:41;19.40;1.00
38131;DHT22;23947;51.894;4.622;2022-07-21T02:44:06;19.40;1.00
38131;DHT22;23947;51.894;4.622;2022-07-21T02:46:32;19.40;1.00
38131;DHT22;23947;51.894;4.622;2022-07-21T02:48:58;19.40;1.00
38131;DHT22;23947;51.894;4.622;2022-07-21T02:51:23;19.30;1.00
38131;DHT22;23947;51.894;4.622;2022-07-21T02:53:49;19.30;1.00
38131;DHT22;23947;51.894;4.622;2022-07-21T02:56:15;19.20;1.00
38131;DHT22;23947;51.894;4.622;2022-07-21T02:58:40;19.20;1.00
38131;DHT22;23947;51.894;4.622;2022-07-21T03:01:06;19.20;1.00
38131;DHT22;23947;51.894;4.622;2022-07-21T03:03:36;19.20;1.00
38131;DHT22;23947;51.894;4.622;2022-07-21T03:06:03;19.20;1.00
38131;DHT22;23947;51.894;4.622;2022-07-21T03:08:30;19.20;1.00
38131;DHT22;23947;51.894;4.622;2022-07-21T03:10:55;19.20;1.00
38131;DHT22;23947;51.894;4.622;2022-07-21T03:13:22;19.20;1.00
38131;DHT22;23947;51.894;4.622;2022-07-21T03:15:48;19.20;1.00
38131;DHT22;23947;51.894;4.622;2022-07-21T03:18:14;19.20;1.00
38131;DHT22;23947;51.894;4.622;2022-07-21T03:20:41;19.20;1.00
38131;DHT22;23947;51.894;4.622;2022-07-21T03:23:07;19.20;1.00
38131;DHT22;23947;51.894;4.622;2022-07-21T03:25:33;19.20;1.00
38131;DHT22;23947;51.894;4.622;2022-07-21T03:27:58;19.20;1.00
38131;DHT22;23947;51.894;4.622;2022-07-21T03:30:24;19.20;1.00
38131;DHT22;23947;51.894;4.622;2022-07-21T03:32:51;19.20;1.00
38131;DHT22;23947;51.894;4.622;2022-07-21T03:35:18;19.20;1.00
38131;DHT22;23947;51.894;4.622;2022-07-21T03:37:52;19.20;1.00
38131;DHT22;23947;51.894;4.622;2022-07-21T03:40:19;19.20;1.00
38131;DHT22;23947;51.894;4.622;2022-07-21T03:42:49;19.20;1.00
38131;DHT22;23947;51.894;4.622;2022-07-21T03:45:15;19.20;1.00
38131;DHT22;23947;51.894;4.622;2022-07-21T03:47:41;19.20;1.00
38131;DHT22;23947;51.894;4.622;2022-07-21T03:50:07;19.20;1.00
38131;DHT22;23947;51.894;4.622;2022-07-21T03:52:33;19.30;1.00
38131;DHT22;23947;51.894;4.622;2022-07-21T03:54:59;19.30;1.00
38131;DHT22;23947;51.894;4.622;2022-07-21T03:57:42;19.30;1.00
38131;DHT22;23947;51.894;4.622;2022-07-21T04:00:14;19.30;1.00
38131;DHT22;23947;51.894;4.622;2022-07-21T04:02:41;19.30;1.00
38131;DHT22;23947;51.894;4.622;2022-07-21T04:05:10;19.30;1.00
38131;DHT22;23947;51.894;4.622;2022-07-21T04:07:37;19.30;1.00
38131;DHT22;23947;51.894;4.622;2022-07-21T04:10:04;19.20;1.00
38131;DHT22;23947;51.894;4.622;2022-07-21T04:12:30;19.20;1.00
38131;DHT22;23947;51.894;4.622;2022-07-21T04:14:55;19.20;1.00
38131;DHT22;23947;51.894;4.622;2022-07-21T04:17:21;19.30;1.00
38131;DHT22;23947;51.894;4.622;2022-07-21T04:19:48;19.20;1.00
38131;DHT22;23947;51.894;4.622;2022-07-21T04:22:13;19.20;1.00
38131;DHT22;23947;51.894;4.622;2022-07-21T04:24:39;19.30;1.00
38131;DHT22;23947;51.894;4.622;2022-07-21T04:27:05;19.30;1.00
38131;DHT22;23947;51.894;4.622;2022-07-21T04:29:31;19.20;1.00
38131;DHT22;23947;51.894;4.622;2022-07-21T04:31:56;19.20;1.00
38131;DHT22;23947;51.894;4.622;2022-07-21T04:34:22;19.20;1.00
38131;DHT22;23947;51.894;4.622;2022-07-21T04:36:47;19.20;1.00
38131;DHT22;23947;51.894;4.622;2022-07-21T04:39:13;19.20;1.00
38131;DHT22;23947;51.894;4.622;2022-07-21T04:41:39;19.20;1.00
38131;DHT22;23947;51.894;4.622;2022-07-21T04:44:04;19.20;1.00
38131;DHT22;23947;51.894;4.622;2022-07-21T04:46:30;19.20;1.00
38131;DHT22;23947;51.894;4.622;2022-07-21T04:48:55;19.20;1.00
38131;DHT22;23947;51.894;4.622;2022-07-21T04:51:21;19.10;1.00
38131;DHT22;23947;51.894;4.622;2022-07-21T04:53:47;19.10;1.00
38131;DHT22;23947;51.894;4.622;2022-07-21T04:56:12;19.20;1.00
38131;DHT22;23947;51.894;4.622;2022-07-21T04:58:38;19.20;1.00
38131;DHT22;23947;51.894;4.622;2022-07-21T05:01:04;19.20;1.00
38131;DHT22;23947;51.894;4.622;2022-07-21T05:03:29;19.20;1.00
38131;DHT22;23947;51.894;4.622;2022-07-21T05:05:55;19.20;1.00
38131;DHT22;23947;51.894;4.622;2022-07-21T05:08:21;19.20;1.00
38131;DHT22;23947;51.894;4.622;2022-07-21T05:10:46;19.20;1.00
38131;DHT22;23947;51.894;4.622;2022-07-21T05:13:12;19.20;1.00
38131;DHT22;23947;51.894;4.622;2022-07-21T05:15:38;19.20;1.00
38131;DHT22;23947;51.894;4.622;2022-07-21T05:18:07;19.20;1.00
38131;DHT22;23947;51.894;4.622;2022-07-21T05:20:32;19.10;1.00
38131;DHT22;23947;51.894;4.622;2022-07-21T05:22:58;19.10;1.00
38131;DHT22;23947;51.894;4.622;2022-07-21T05:25:24;19.10;1.00
38131;DHT22;23947;51.894;4.622;2022-07-21T05:27:49;19.10;1.00
38131;DHT22;23947;51.894;4.622;2022-07-21T05:30:15;19.10;1.00
38131;DHT22;23947;51.894;4.622;2022-07-21T05:32:41;19.20;1.00
38131;DHT22;23947;51.894;4.622;2022-07-21T05:35:07;19.10;1.00
38131;DHT22;23947;51.894;4.622;2022-07-21T05:37:39;19.10;1.00
38131;DHT22;23947;51.894;4.622;2022-07-21T05:40:07;19.10;1.00
38131;DHT22;23947;51.894;4.622;2022-07-21T05:42:34;19.10;1.00
38131;DHT22;23947;51.894;4.622;2022-07-21T05:45:01;19.20;1.00
38131;DHT22;23947;51.894;4.622;2022-07-21T05:47:27;19.10;1.00
38131;DHT22;23947;51.894;4.622;2022-07-21T05:49:53;19.20;1.00
38131;DHT22;23947;51.894;4.622;2022-07-21T05:52:19;19.10;1.00
38131;DHT22;23947;51.894;4.622;2022-07-21T05:54:44;19.20;1.00
38131;DHT22;23947;51.894;4.622;2022-07-21T05:57:10;19.20;1.00
38131;DHT22;23947;51.894;4.622;2022-07-21T05:59:36;19.20;1.00
38131;DHT22;23947;51.894;4.622;2022-07-21T06:02:02;19.20;1.00
38131;DHT22;23947;51.894;4.622;2022-07-21T06:04:27;19.20;1.00
38131;DHT22;23947;51.894;4.622;2022-07-21T06:06:53;19.20;1.00
38131;DHT22;23947;51.894;4.622;2022-07-21T06:09:20;19.20;1.00
38131;DHT22;23947;51.894;4.622;2022-07-21T06:11:46;19.20;1.00
38131;DHT22;23947;51.894;4.622;2022-07-21T06:14:12;19.20;1.00
38131;DHT22;23947;51.894;4.622;2022-07-21T06:16:37;19.20;1.00
38131;DHT22;23947;51.894;4.622;2022-07-21T06:19:05;19.20;1.00
38131;DHT22;23947;51.894;4.622;2022-07-21T06:21:32;19.20;1.00
38131;DHT22;23947;51.894;4.622;2022-07-21T06:23:58;19.10;1.00
38131;DHT22;23947;51.894;4.622;2022-07-21T06:26:23;19.20;1.00
38131;DHT22;23947;51.894;4.622;2022-07-21T06:28:49;19.20;1.00
38131;DHT22;23947;51.894;4.622;2022-07-21T06:31:15;19.20;1.00
38131;DHT22;23947;51.894;4.622;2022-07-21T06:33:41;19.10;1.00
38131;DHT22;23947;51.894;4.622;2022-07-21T06:36:07;19.10;1.00
38131;DHT22;23947;51.894;4.622;2022-07-21T06:38:33;19.10;1.00
38131;DHT22;23947;51.894;4.622;2022-07-21T06:40:59;19.10;1.00
38131;DHT22;23947;51.894;4.622;2022-07-21T06:43:25;19.10;1.00
38131;DHT22;23947;51.894;4.622;2022-07-21T06:45:51;19.00;1.00
38131;DHT22;23947;51.894;4.622;2022-07-21T06:48:17;19.00;1.00
38131;DHT22;23947;51.894;4.622;2022-07-21T06:50:43;18.90;1.00
38131;DHT22;23947;51.894;4.622;2022-07-21T06:53:09;18.90;1.00
38131;DHT22;23947;51.894;4.622;2022-07-21T06:55:35;18.80;1.00
38131;DHT22;23947;51.894;4.622;2022-07-21T06:58:19;18.80;1.00
38131;DHT22;23947;51.894;4.622;2022-07-21T07:00:46;18.80;1.00
38131;DHT22;23947;51.894;4.622;2022-07-21T07:03:12;18.70;1.00
38131;DHT22;23947;51.894;4.622;2022-07-21T07:05:38;18.70;1.00
38131;DHT22;23947;51.894;4.622;2022-07-21T07:08:04;18.70;1.00
38131;DHT22;23947;51.894;4.622;2022-07-21T07:10:31;18.60;1.00
38131;DHT22;23947;51.894;4.622;2022-07-21T07:12:56;18.60;1.00
38131;DHT22;23947;51.894;4.622;2022-07-21T07:15:23;18.60;1.00
38131;DHT22;23947;51.894;4.622;2022-07-21T07:17:49;18.50;1.00
38131;DHT22;23947;51.894;4.622;2022-07-21T07:20:15;18.50;1.00
38131;DHT22;23947;51.894;4.622;2022-07-21T07:22:41;18.60;1.00
38131;DHT22;23947;51.894;4.622;2022-07-21T07:25:07;18.60;1.00
38131;DHT22;23947;51.894;4.622;2022-07-21T07:27:33;18.60;1.00
38131;DHT22;23947;51.894;4.622;2022-07-21T07:29:59;18.60;1.00
38131;DHT22;23947;51.894;4.622;2022-07-21T07:32:25;18.50;1.00
38131;DHT22;23947;51.894;4.622;2022-07-21T07:34:50;18.50;1.00
38131;DHT22;23947;51.894;4.622;2022-07-21T07:37:16;18.60;1.00
38131;DHT22;23947;51.894;4.622;2022-07-21T07:39:42;18.60;1.00
38131;DHT22;23947;51.894;4.622;2022-07-21T07:42:07;18.50;1.00
38131;DHT22;23947;51.894;4.622;2022-07-21T07:44:33;18.40;1.00
38131;DHT22;23947;51.894;4.622;2022-07-21T07:46:59;18.50;1.00
38131;DHT22;23947;51.894;4.622;2022-07-21T07:49:28;18.40;1.00
38131;DHT22;23947;51.894;4.622;2022-07-21T07:51:55;18.50;1.00
38131;DHT22;23947;51.894;4.622;2022-07-21T07:54:20;18.50;1.00
38131;DHT22;23947;51.894;4.622;2022-07-21T07:56:46;18.40;1.00
38131;DHT22;23947;51.894;4.622;2022-07-21T07:59:12;18.30;1.00
38131;DHT22;23947;51.894;4.622;2022-07-21T08:01:37;18.30;1.00
38131;DHT22;23947;51.894;4.622;2022-07-21T08:04:03;18.30;1.00
38131;DHT22;23947;51.894;4.622;2022-07-21T08:06:29;18.30;1.00
38131;DHT22;23947;51.894;4.622;2022-07-21T08:08:55;18.20;1.00
38131;DHT22;23947;51.894;4.622;2022-07-21T08:11:20;18.30;1.00
38131;DHT22;23947;51.894;4.622;2022-07-21T08:13:46;18.20;1.00
38131;DHT22;23947;51.894;4.622;2022-07-21T08:16:12;18.20;1.00
38131;DHT22;23947;51.894;4.622;2022-07-21T08:18:41;18.20;1.00
38131;DHT22;23947;51.894;4.622;2022-07-21T08:21:07;18.20;1.00
38131;DHT22;23947;51.894;4.622;2022-07-21T08:23:33;18.20;1.00
38131;DHT22;23947;51.894;4.622;2022-07-21T08:25:59;18.30;1.00
38131;DHT22;23947;51.894;4.622;2022-07-21T08:28:24;18.20;1.00
38131;DHT22;23947;51.894;4.622;2022-07-21T08:30:50;18.20;1.00
38131;DHT22;23947;51.894;4.622;2022-07-21T08:33:16;18.20;1.00
38131;DHT22;23947;51.894;4.622;2022-07-21T08:35:42;18.20;1.00
38131;DHT22;23947;51.894;4.622;2022-07-21T08:38:09;18.20;1.00
38131;DHT22;23947;51.894;4.622;2022-07-21T08:40:42;18.30;1.00
38131;DHT22;23947;51.894;4.622;2022-07-21T08:43:08;18.20;1.00
38131;DHT22;23947;51.894;4.622;2022-07-21T08:45:36;18.10;1.00
38131;DHT22;23947;51.894;4.622;2022-07-21T08:48:02;18.20;1.00
38131;DHT22;23947;51.894;4.622;2022-07-21T08:50:34;18.10;1.00
38131;DHT22;23947;51.894;4.622;2022-07-21T08:53:00;18.10;1.00
38131;DHT22;23947;51.894;4.622;2022-07-21T08:55:34;18.10;1.00
38131;DHT22;23947;51.894;4.622;2022-07-21T08:58:00;18.00;1.00
38131;DHT22;23947;51.894;4.622;2022-07-21T09:00:26;18.10;1.00
38131;DHT22;23947;51.894;4.622;2022-07-21T09:03:12;18.10;1.00
38131;DHT22;23947;51.894;4.622;2022-07-21T09:05:39;18.00;1.00
38131;DHT22;23947;51.894;4.622;2022-07-21T09:08:05;18.00;1.00
38131;DHT22;23947;51.894;4.622;2022-07-21T09:10:31;18.00;1.00
38131;DHT22;23947;51.894;4.622;2022-07-21T09:13:00;17.90;1.00
38131;DHT22;23947;51.894;4.622;2022-07-21T09:15:27;18.00;1.00
38131;DHT22;23947;51.894;4.622;2022-07-21T09:18:14;18.00;1.00
38131;DHT22;23947;51.894;4.622;2022-07-21T09:20:50;18.00;1.00
38131;DHT22;23947;51.894;4.622;2022-07-21T09:23:19;17.90;1.00
38131;DHT22;23947;51.894;4.622;2022-07-21T09:25:50;18.00;1.00
38131;DHT22;23947;51.894;4.622;2022-07-21T09:31:06;17.90;1.00
38131;DHT22;23947;51.894;4.622;2022-07-21T09:33:39;18.00;1.00
38131;DHT22;23947;51.894;4.622;2022-07-21T09:36:08;18.00;1.00
38131;DHT22;23947;51.894;4.622;2022-07-21T09:38:35;17.90;1.00
38131;DHT22;23947;51.894;4.622;2022-07-21T09:41:12;18.00;1.00
38131;DHT22;23947;51.894;4.622;2022-07-21T09:43:46;18.00;1.00
38131;DHT22;23947;51.894;4.622;2022-07-21T09:46:21;18.00;1.00
38131;DHT22;23947;51.894;4.622;2022-07-21T09:48:49;18.10;1.00
38131;DHT22;23947;51.894;4.622;2022-07-21T09:56:28;18.10;1.00
38131;DHT22;23947;51.894;4.622;2022-07-21T09:58:55;18.10;1.00
38131;DHT22;23947;51.894;4.622;2022-07-21T10:07:43;18.20;1.00
38131;DHT22;23947;51.894;4.622;2022-07-21T10:10:11;18.20;1.00
38131;DHT22;23947;51.894;4.622;2022-07-21T10:12:37;18.20;1.00
38131;DHT22;23947;51.894;4.622;2022-07-21T10:15:03;18.30;1.00
38131;DHT22;23947;51.894;4.622;2022-07-21T10:17:28;18.30;1.00
38131;DHT22;23947;51.894;4.622;2022-07-21T10:25:17;18.00;1.00
38131;DHT22;23947;51.894;4.622;2022-07-21T10:30:39;18.00;1.00
38131;DHT22;23947;51.894;4.622;2022-07-21T10:33:05;18.00;1.00
38131;DHT22;23947;51.894;4.622;2022-07-21T10:35:32;18.00;1.00
38131;DHT22;23947;51.894;4.622;2022-07-21T10:37:58;18.00;1.00
38131;DHT22;23947;51.894;4.622;2022-07-21T10:45:32;18.10;1.00
38131;DHT22;23947;51.894;4.622;2022-07-21T10:47:59;18.10;1.00
38131;DHT22;23947;51.894;4.622;2022-07-21T10:52:58;18.10;1.00
38131;DHT22;23947;51.894;4.622;2022-07-21T10:55:26;18.30;1.00
38131;DHT22;23947;51.894;4.622;2022-07-21T10:58:28;18.30;1.00
38131;DHT22;23947;51.894;4.622;2022-07-21T11:01:05;18.30;1.00
38131;DHT22;23947;51.894;4.622;2022-07-21T11:03:34;18.40;1.00
38131;DHT22;23947;51.894;4.622;2022-07-21T11:06:14;18.20;1.00
38131;DHT22;23947;51.894;4.622;2022-07-21T11:08:47;18.20;1.00
38131;DHT22;23947;51.894;4.622;2022-07-21T11:11:15;18.30;1.00
38131;DHT22;23947;51.894;4.622;2022-07-21T11:16:22;18.30;1.00
38131;DHT22;23947;51.894;4.622;2022-07-21T11:18:48;18.30;1.00
38131;DHT22;23947;51.894;4.622;2022-07-21T11:21:16;18.30;1.00
38131;DHT22;23947;51.894;4.622;2022-07-21T11:23:46;18.40;1.00
38131;DHT22;23947;51.894;4.622;2022-07-21T11:26:14;18.40;1.00
38131;DHT22;23947;51.894;4.622;2022-07-21T11:28:40;18.50;1.00
38131;DHT22;23947;51.894;4.622;2022-07-21T11:33:39;18.50;1.00
38131;DHT22;23947;51.894;4.622;2022-07-21T11:36:05;18.50;1.00
38131;DHT22;23947;51.894;4.622;2022-07-21T11:38:31;18.50;1.00
38131;DHT22;23947;51.894;4.622;2022-07-21T11:41:16;18.50;1.00
38131;DHT22;23947;51.894;4.622;2022-07-21T11:43:44;18.30;1.00
38131;DHT22;23947;51.894;4.622;2022-07-21T11:46:11;18.40;1.00
38131;DHT22;23947;51.894;4.622;2022-07-21T11:48:37;18.40;1.00
38131;DHT22;23947;51.894;4.622;2022-07-21T11:51:03;18.40;1.00
38131;DHT22;23947;51.894;4.622;2022-07-21T11:53:30;18.40;1.00
38131;DHT22;23947;51.894;4.622;2022-07-21T11:55:57;18.40;1.00
38131;DHT22;23947;51.894;4.622;2022-07-21T11:58:23;18.40;1.00
38131;DHT22;23947;51.894;4.622;2022-07-21T12:00:49;18.40;1.00
38131;DHT22;23947;51.894;4.622;2022-07-21T12:03:28;18.30;1.00
38131;DHT22;23947;51.894;4.622;2022-07-21T12:05:55;18.20;1.00
38131;DHT22;23947;51.894;4.622;2022-07-21T12:08:22;18.20;1.00
38131;DHT22;23947;51.894;4.622;2022-07-21T12:10:48;18.20;1.00
38131;DHT22;23947;51.894;4.622;2022-07-21T12:13:13;18.20;1.00
38131;DHT22;23947;51.894;4.622;2022-07-21T12:15:39;18.20;1.00
38131;DHT22;23947;51.894;4.622;2022-07-21T12:20:40;18.10;1.00
38131;DHT22;23947;51.894;4.622;2022-07-21T12:23:26;18.10;1.00
38131;DHT22;23947;51.894;4.622;2022-07-21T12:25:53;18.10;1.00
38131;DHT22;23947;51.894;4.622;2022-07-21T12:28:19;18.10;1.00
38131;DHT22;23947;51.894;4.622;2022-07-21T12:30:48;18.10;1.00
38131;DHT22;23947;51.894;4.622;2022-07-21T12:33:19;18.10;1.00
38131;DHT22;23947;51.894;4.622;2022-07-21T12:36:07;18.10;1.00
38131;DHT22;23947;51.894;4.622;2022-07-21T12:38:43;18.10;1.00
38131;DHT22;23947;51.894;4.622;2022-07-21T12:41:12;18.10;1.00
38131;DHT22;23947;51.894;4.622;2022-07-21T12:43:38;18.10;1.00
38131;DHT22;23947;51.894;4.622;2022-07-21T12:48:40;18.20;1.00
38131;DHT22;23947;51.894;4.622;2022-07-21T12:51:07;18.20;1.00
38131;DHT22;23947;51.894;4.622;2022-07-21T12:53:38;18.30;1.00
38131;DHT22;23947;51.894;4.622;2022-07-21T12:56:04;18.30;1.00
38131;DHT22;23947;51.894;4.622;2022-07-21T12:58:29;18.30;1.00
38131;DHT22;23947;51.894;4.622;2022-07-21T13:00:56;18.30;1.00
38131;DHT22;23947;51.894;4.622;2022-07-21T13:03:21;18.30;1.00
38131;DHT22;23947;51.894;4.622;2022-07-21T13:05:47;18.20;1.00
38131;DHT22;23947;51.894;4.622;2022-07-21T13:08:13;18.20;1.00
38131;DHT22;23947;51.894;4.622;2022-07-21T13:10:38;18.20;1.00
38131;DHT22;23947;51.894;4.622;2022-07-21T13:13:04;18.30;1.00
38131;DHT22;23947;51.894;4.622;2022-07-21T13:15:30;18.30;1.00
38131;DHT22;23947;51.894;4.622;2022-07-21T13:17:55;18.30;1.00
38131;DHT22;23947;51.894;4.622;2022-07-21T13:20:21;18.30;1.00
38131;DHT22;23947;51.894;4.622;2022-07-21T13:22:47;18.20;1.00
38131;DHT22;23947;51.894;4.622;2022-07-21T13:25:13;18.20;1.00
38131;DHT22;23947;51.894;4.622;2022-07-21T13:27:39;18.10;1.00
38131;DHT22;23947;51.894;4.622;2022-07-21T13:30:06;18.10;1.00
38131;DHT22;23947;51.894;4.622;2022-07-21T13:32:36;18.10;1.00
38131;DHT22;23947;51.894;4.622;2022-07-21T13:35:05;18.10;1.00
38131;DHT22;23947;51.894;4.622;2022-07-21T13:37:31;18.00;1.00
38131;DHT22;23947;51.894;4.622;2022-07-21T13:39:57;17.90;1.00
38131;DHT22;23947;51.894;4.622;2022-07-21T13:42:23;17.90;1.00
38131;DHT22;23947;51.894;4.622;2022-07-21T13:44:48;17.90;1.00
38131;DHT22;23947;51.894;4.622;2022-07-21T13:47:14;17.90;1.00
38131;DHT22;23947;51.894;4.622;2022-07-21T13:49:40;17.90;1.00
38131;DHT22;23947;51.894;4.622;2022-07-21T13:52:05;17.90;1.00
38131;DHT22;23947;51.894;4.622;2022-07-21T13:54:32;17.90;1.00
38131;DHT22;23947;51.894;4.622;2022-07-21T13:56:57;17.90;1.00
38131;DHT22;23947;51.894;4.622;2022-07-21T13:59:25;17.90;1.00
38131;DHT22;23947;51.894;4.622;2022-07-21T14:01:51;17.90;1.00
38131;DHT22;23947;51.894;4.622;2022-07-21T14:04:17;17.90;1.00
38131;DHT22;23947;51.894;4.622;2022-07-21T14:06:42;17.90;1.00
38131;DHT22;23947;51.894;4.622;2022-07-21T14:09:12;17.80;1.00
38131;DHT22;23947;51.894;4.622;2022-07-21T14:11:38;17.80;1.00
38131;DHT22;23947;51.894;4.622;2022-07-21T14:14:04;17.80;1.00
38131;DHT22;23947;51.894;4.622;2022-07-21T14:16:29;17.80;1.00
38131;DHT22;23947;51.894;4.622;2022-07-21T14:18:55;17.90;1.00
38131;DHT22;23947;51.894;4.622;2022-07-21T14:21:21;17.80;1.00
38131;DHT22;23947;51.894;4.622;2022-07-21T14:23:46;17.80;1.00
38131;DHT22;23947;51.894;4.622;2022-07-21T14:26:12;17.80;1.00
38131;DHT22;23947;51.894;4.622;2022-07-21T14:28:37;17.90;1.00
38131;DHT22;23947;51.894;4.622;2022-07-21T14:31:03;17.90;1.00
38131;DHT22;23947;51.894;4.622;2022-07-21T14:33:29;18.00;1.00
38131;DHT22;23947;51.894;4.622;2022-07-21T14:35:56;17.90;1.00
38131;DHT22;23947;51.894;4.622;2022-07-21T14:38:21;17.90;1.00
38131;DHT22;23947;51.894;4.622;2022-07-21T14:40:47;17.90;1.00
38131;DHT22;23947;51.894;4.622;2022-07-21T14:43:13;17.80;1.00
38131;DHT22;23947;51.894;4.622;2022-07-21T14:45:39;17.80;1.00
38131;DHT22;23947;51.894;4.622;2022-07-21T14:48:05;17.80;1.00
38131;DHT22;23947;51.894;4.622;2022-07-21T14:50:34;17.90;1.00
38131;DHT22;23947;51.894;4.622;2022-07-21T14:53:00;17.90;1.00
38131;DHT22;23947;51.894;4.622;2022-07-21T14:55:26;17.90;1.00
38131;DHT22;23947;51.894;4.622;2022-07-21T14:57:53;17.90;1.00
38131;DHT22;23947;51.894;4.622;2022-07-21T15:00:20;18.00;1.00
38131;DHT22;23947;51.894;4.622;2022-07-21T15:02:46;18.00;1.00
38131;DHT22;23947;51.894;4.622;2022-07-21T15:05:12;18.00;1.00
38131;DHT22;23947;51.894;4.622;2022-07-21T15:07:38;18.00;1.00
38131;DHT22;23947;51.894;4.622;2022-07-21T15:10:04;17.90;1.00
38131;DHT22;23947;51.894;4.622;2022-07-21T15:12:30;17.90;1.00
38131;DHT22;23947;51.894;4.622;2022-07-21T15:14:55;17.90;1.00
38131;DHT22;23947;51.894;4.622;2022-07-21T15:17:21;17.90;1.00
38131;DHT22;23947;51.894;4.622;2022-07-21T15:19:47;18.00;1.00
38131;DHT22;23947;51.894;4.622;2022-07-21T15:22:13;17.90;1.00
38131;DHT22;23947;51.894;4.622;2022-07-21T15:24:38;18.00;1.00
38131;DHT22;23947;51.894;4.622;2022-07-21T15:27:04;18.00;1.00
38131;DHT22;23947;51.894;4.622;2022-07-21T15:29:30;18.00;1.00
38131;DHT22;23947;51.894;4.622;2022-07-21T15:31:55;18.10;1.00
38131;DHT22;23947;51.894;4.622;2022-07-21T15:34:21;18.00;1.00
38131;DHT22;23947;51.894;4.622;2022-07-21T15:36:47;18.00;1.00
38131;DHT22;23947;51.894;4.622;2022-07-21T15:39:12;17.90;1.00
38131;DHT22;23947;51.894;4.622;2022-07-21T15:41:39;18.00;1.00
38131;DHT22;23947;51.894;4.622;2022-07-21T15:44:05;18.00;1.00
38131;DHT22;23947;51.894;4.622;2022-07-21T15:46:32;18.00;1.00
38131;DHT22;23947;51.894;4.622;2022-07-21T15:48:57;18.00;1.00
38131;DHT22;23947;51.894;4.622;2022-07-21T15:51:23;18.00;1.00
38131;DHT22;23947;51.894;4.622;2022-07-21T15:53:49;18.00;1.00
38131;DHT22;23947;51.894;4.622;2022-07-21T15:56:15;18.10;1.00
38131;DHT22;23947;51.894;4.622;2022-07-21T15:58:40;18.10;1.00
38131;DHT22;23947;51.894;4.622;2022-07-21T16:01:24;18.00;1.00
38131;DHT22;23947;51.894;4.622;2022-07-21T16:03:50;18.00;1.00
38131;DHT22;23947;51.894;4.622;2022-07-21T16:06:16;18.00;1.00
38131;DHT22;23947;51.894;4.622;2022-07-21T16:08:43;18.00;1.00
38131;DHT22;23947;51.894;4.622;2022-07-21T16:11:08;17.90;1.00
38131;DHT22;23947;51.894;4.622;2022-07-21T16:13:34;17.90;1.00
38131;DHT22;23947;51.894;4.622;2022-07-21T16:16:00;17.90;1.00
38131;DHT22;23947;51.894;4.622;2022-07-21T16:18:25;18.00;1.00
38131;DHT22;23947;51.894;4.622;2022-07-21T16:20:51;18.00;1.00
38131;DHT22;23947;51.894;4.622;2022-07-21T16:23:16;18.00;1.00